Time;durP1;ratioP1;P1;durP2;ratioP2;P2;SDS_P1;SDS_P2;PMS_P1;PMS_P2;Temp;Humidity;BMP_temperature;BMP_pressure;BME280_temperature;BME280_humidity;BME280_pressure;Samples;Min_cycle;Max_cycle;Signal;HPM_P1;HPM_P2
2021/12/17 00:02:58;;;;;;;33.83;18.02;;;;;;;3.65;94.35;97669.28;4991108;28;20392;-48
2021/12/17 00:04:53;;;;;;;30.98;17.77;;;;;;;3.79;94.52;97675.91;4991061;28;20043;-48
2021/12/17 00:07:23;;;;;;;33.97;19.55;;;;;;;3.85;94.26;97688.31;4982470;28;20566;-54
2021/12/17 00:09:51;;;;;;;37.08;19.13;;;;;;;3.89;94.51;97683.25;4983910;28;20048;-52
2021/12/17 00:12:22;;;;;;;34.38;18.70;;;;;;;3.92;94.10;97682.78;5004444;28;20041;-51
2021/12/17 00:14:52;;;;;;;37.45;20.08;;;;;;;3.97;94.12;97678.31;5005208;28;20462;-49
2021/12/17 00:17:26;;;;;;;33.25;17.85;;;;;;;3.89;94.19;97677.91;4991545;28;20053;-50
2021/12/17 00:53:06;;;;;;;31.10;16.52;;;;;;;3.88;94.52;97693.16;5002078;28;20120;-50
2021/12/17 00:55:34;;;;;;;30.60;17.13;;;;;;;3.91;94.40;97691.88;5003001;28;20047;-48
2021/12/17 00:58:02;;;;;;;30.73;17.52;;;;;;;3.89;94.53;97696.66;4979824;28;20074;-48
2021/12/17 01:00:30;;;;;;;31.10;17.60;;;;;;;3.64;95.86;97697.06;4992832;28;20046;-48
2021/12/17 01:02:58;;;;;;;30.85;17.05;;;;;;;3.80;95.83;97696.25;4978369;28;20482;-47
2021/12/17 01:05:28;;;;;;;31.23;17.48;;;;;;;3.60;96.40;97696.75;4982672;28;20070;-49
2021/12/17 01:07:58;;;;;;;28.10;15.77;;;;;;;3.32;97.39;97686.16;4984594;28;20049;-48
2021/12/17 01:10:31;;;;;;;30.08;16.92;;;;;;;3.91;95.57;97692.69;5000739;28;20052;-49
2021/12/17 01:13:14;;;;;;;27.20;16.63;;;;;;;4.12;93.81;97684.91;4988756;28;20060;-52
2021/12/17 01:16:03;;;;;;;28.27;16.20;;;;;;;4.01;93.80;97667.09;4983289;28;20519;-49
2021/12/17 01:21:43;;;;;;;27.77;15.48;;;;;;;4.02;94.57;97674.06;4985428;28;20071;-52
2021/12/17 01:24:52;;;;;;;28.00;15.73;;;;;;;4.30;92.80;97671.22;4987234;28;20053;-51
2021/12/17 01:36:34;;;;;;;32.78;17.30;;;;;;;3.64;95.04;97652.41;4993013;28;20043;-52
2021/12/17 01:42:06;;;;;;;31.23;16.73;;;;;;;3.95;93.88;97653.63;4925633;29;20118;-53
2021/12/17 01:44:37;;;;;;;31.02;16.50;;;;;;;3.51;95.17;97629.47;4945384;28;20109;-50
2021/12/17 01:47:09;;;;;;;29.70;15.73;;;;;;;3.36;96.43;97647.94;4967081;28;20053;-51
2021/12/17 02:00:30;;;;;;;27.73;15.90;;;;;;;4.19;91.65;97640.84;4971719;28;20050;-52
2021/12/17 02:02:59;;;;;;;26.52;15.45;;;;;;;4.39;90.73;97644.81;4991301;28;20050;-53
2021/12/17 02:05:31;;;;;;;29.50;15.82;;;;;;;4.56;89.97;97645.53;4987099;28;20058;-51
2021/12/17 02:08:00;;;;;;;24.50;15.40;;;;;;;4.56;89.99;97644.75;4984393;28;20085;-52
2021/12/17 02:21:52;;;;;;;21.55;12.45;;;;;;;4.16;89.30;97627.09;4999909;28;20050;-53
2021/12/17 02:32:20;;;;;;;20.35;12.43;;;;;;;4.21;89.25;97627.19;5002860;28;20093;-49
2021/12/17 02:37:26;;;;;;;19.65;13.55;;;;;;;4.24;87.64;97599.88;4995419;28;20043;-52
2021/12/17 02:46:13;;;;;;;20.52;12.55;;;;;;;3.72;90.17;97614.50;4989997;28;20046;-52
2021/12/17 02:48:41;;;;;;;20.13;13.13;;;;;;;3.46;92.03;97604.50;5005779;28;20132;-51
2021/12/17 02:51:09;;;;;;;19.05;12.48;;;;;;;3.95;90.16;97602.75;5012973;28;20053;-51
2021/12/17 02:53:37;;;;;;;23.17;14.35;;;;;;;4.07;89.36;97599.97;4983611;28;20051;-51
2021/12/17 02:56:08;;;;;;;19.83;13.95;;;;;;;4.30;88.37;97603.44;4973532;28;20136;-47
2021/12/17 02:58:37;;;;;;;20.55;14.48;;;;;;;4.33;88.14;97601.06;5001628;28;20046;-53
2021/12/17 03:01:06;;;;;;;20.20;13.77;;;;;;;4.14;89.33;97605.94;5002263;28;20037;-50
2021/12/17 03:03:36;;;;;;;23.35;14.10;;;;;;;3.77;90.29;97597.72;4997912;28;20488;-51
2021/12/17 03:06:02;;;;;;;20.48;13.20;;;;;;;4.17;89.37;97601.94;4985121;28;20050;-51
2021/12/17 03:08:30;;;;;;;20.10;13.27;;;;;;;4.24;88.75;97602.56;4999488;28;20050;-48
2021/12/17 03:10:58;;;;;;;19.70;13.30;;;;;;;4.09;89.78;97605.06;5007300;28;20101;-49
2021/12/17 03:13:28;;;;;;;20.13;13.25;;;;;;;3.59;93.58;97612.16;5001001;28;20053;-48
2021/12/17 03:23:49;;;;;;;20.92;13.98;;;;;;;4.08;90.71;97611.47;5001109;28;20078;-51
2021/12/17 03:26:26;;;;;;;21.48;13.35;;;;;;;3.67;90.85;97603.72;4985323;28;20100;-50
2021/12/17 03:28:58;;;;;;;21.40;14.15;;;;;;;3.93;91.45;97615.59;4983881;28;20473;-52
2021/12/17 03:31:27;;;;;;;22.33;13.85;;;;;;;4.16;90.01;97616.38;4972227;28;20050;-52
2021/12/17 03:34:11;;;;;;;22.45;13.80;;;;;;;4.30;89.81;97612.28;5000884;28;20049;-52
2021/12/17 03:36:38;;;;;;;20.30;13.70;;;;;;;3.71;91.61;97623.59;4992633;28;20089;-49
2021/12/17 03:39:07;;;;;;;22.15;14.32;;;;;;;3.85;91.72;97626.72;4963629;28;20137;-52
2021/12/17 03:41:39;;;;;;;25.42;14.35;;;;;;;4.24;90.09;97626.69;4998242;28;20048;-48
2021/12/17 03:44:09;;;;;;;19.80;13.63;;;;;;;4.35;89.09;97601.59;4988938;28;20051;-47
2021/12/17 03:47:08;;;;;;;20.50;13.43;;;;;;;4.28;88.37;97630.47;4996937;28;20654;-49
2021/12/17 03:49:52;;;;;;;24.23;14.95;;;;;;;4.22;89.27;97615.38;5000566;28;20057;-51
2021/12/17 03:52:20;;;;;;;20.85;14.32;;;;;;;3.98;90.51;97622.88;5018718;28;20046;-52
2021/12/17 03:54:47;;;;;;;23.65;14.70;;;;;;;3.78;91.64;97622.59;5004561;28;20114;-51
2021/12/17 03:57:18;;;;;;;22.38;14.40;;;;;;;4.19;90.29;97631.97;5001825;28;20046;-49
2021/12/17 03:59:49;;;;;;;;;;;;;;;4.33;89.60;97621.69;5015761;28;20426;-47
2021/12/17 04:02:20;;;;;;;23.13;14.55;;;;;;;3.97;90.53;97600.63;5003871;28;19922;-49
2021/12/17 04:04:47;;;;;;;20.80;14.32;;;;;;;4.39;89.34;97610.78;4993810;28;20042;-51
2021/12/17 04:07:36;;;;;;;21.50;14.32;;;;;;;4.37;88.83;97610.22;4994328;28;20447;-51
2021/12/17 04:10:24;;;;;;;21.88;14.73;;;;;;;4.25;89.77;97604.19;5015181;28;20046;-49
2021/12/17 04:13:12;;;;;;;24.08;15.30;;;;;;;3.93;91.15;97607.56;5004360;28;20121;-50
2021/12/17 04:15:40;;;;;;;21.75;15.63;;;;;;;3.86;91.52;97592.72;5010769;28;20043;-51
2021/12/17 04:18:09;;;;;;;24.45;14.88;;;;;;;4.04;91.34;97605.00;5006775;28;20519;-50
2021/12/17 04:20:37;;;;;;;21.60;14.65;;;;;;;4.35;89.17;97596.25;5002312;28;20046;-49
2021/12/17 04:23:04;;;;;;;20.17;13.88;;;;;;;4.43;88.69;97571.69;4992233;28;20130;-49
2021/12/17 04:25:31;;;;;;;22.77;14.43;;;;;;;4.43;88.93;97571.69;4987433;28;20170;-49
2021/12/17 04:27:59;;;;;;;23.27;13.95;;;;;;;4.45;88.04;97566.91;4985692;28;20062;-49
2021/12/17 04:30:30;;;;;;;24.70;14.80;;;;;;;4.47;88.33;97560.47;4982757;28;20053;-52
2021/12/17 04:32:58;;;;;;;23.10;14.93;;;;;;;3.86;91.49;97569.44;4997809;28;20141;-50
2021/12/17 04:35:26;;;;;;;20.45;13.55;;;;;;;4.44;89.10;97561.78;5015702;28;20046;-51
2021/12/17 04:37:55;;;;;;;20.45;14.30;;;;;;;4.40;87.91;97572.19;5003151;28;20124;-52
2021/12/17 04:40:24;;;;;;;21.63;14.18;;;;;;;4.31;89.09;97567.53;5022014;28;20053;-50
2021/12/17 04:45:28;;;;;;;20.80;13.65;;;;;;;4.47;88.06;97571.19;4985672;28;20494;-52
2021/12/17 04:59:31;;;;;;;21.27;14.40;;;;;;;4.33;88.88;97549.34;5006172;28;20466;-50
2021/12/17 05:02:02;;;;;;;22.23;13.45;;;;;;;4.60;87.86;97552.81;5008013;28;20154;-51
2021/12/17 05:04:38;;;;;;;17.48;11.85;;;;;;;4.41;88.22;97555.03;5012313;28;20042;-49
2021/12/17 05:07:07;;;;;;;19.08;12.43;;;;;;;4.18;89.73;97541.94;5007267;28;20055;-51
2021/12/17 05:22:59;;;;;;;15.55;10.60;;;;;;;4.47;88.80;97547.06;4979229;28;20061;-46
2021/12/17 05:25:26;;;;;;;15.50;10.25;;;;;;;4.64;88.11;97547.75;4992761;28;20471;-48
2021/12/17 05:27:59;;;;;;;17.00;11.90;;;;;;;4.39;89.94;97556.38;4999831;28;20043;-49
2021/12/17 05:30:31;;;;;;;15.75;10.25;;;;;;;4.61;88.50;97556.31;4980136;28;20164;-49
2021/12/17 05:32:58;;;;;;;16.05;10.48;;;;;;;4.46;88.83;97554.31;5006523;28;20073;-48
2021/12/17 05:35:27;;;;;;;9.30;6.20;;;;;;;4.04;90.77;97554.13;4993566;28;20374;-51
2021/12/17 05:37:56;;;;;;;11.05;7.20;;;;;;;4.05;90.87;97561.09;4985260;28;20567;-50
2021/12/17 05:40:23;;;;;;;10.77;7.28;;;;;;;4.13;91.03;97572.19;4998743;28;20137;-50
2021/12/17 05:42:54;;;;;;;12.35;7.93;;;;;;;3.95;92.05;97577.84;5011088;28;20046;-50
2021/12/17 05:48:11;;;;;;;11.63;7.75;;;;;;;4.49;89.78;97596.69;5040833;23;20048;-48
2021/12/17 05:50:40;;;;;;;10.38;6.80;;;;;;;3.86;90.85;97598.06;5027903;28;20565;-48
2021/12/17 05:53:08;;;;;;;12.95;7.35;;;;;;;4.07;91.22;97599.16;5029011;28;20041;-48
2021/12/17 05:55:36;;;;;;;12.30;7.25;;;;;;;4.19;90.53;97597.13;5013501;28;20078;-49
2021/12/17 05:58:04;;;;;;;9.70;6.53;;;;;;;4.09;90.74;97597.03;5014029;28;20121;-47
2021/12/17 06:00:32;;;;;;;11.02;7.53;;;;;;;4.35;89.65;97598.13;5011595;28;20495;-47
2021/12/17 06:03:20;;;;;;;11.00;6.65;;;;;;;4.02;90.73;97601.75;5009420;28;20046;-47
2021/12/17 06:05:59;;;;;;;10.90;7.00;;;;;;;4.40;88.98;97607.03;4992614;28;20050;-49
2021/12/17 06:08:26;;;;;;;13.02;7.45;;;;;;;4.41;89.34;97613.19;5011493;28;20542;-46
2021/12/17 06:10:54;;;;;;;11.43;7.72;;;;;;;4.10;90.93;97620.09;5009684;28;20050;-50
2021/12/17 06:13:21;;;;;;;12.07;7.65;;;;;;;4.03;91.24;97632.84;5013022;28;20121;-50
2021/12/17 06:15:48;;;;;;;13.27;8.50;;;;;;;4.15;90.62;97626.28;5009773;28;20434;-46
2021/12/17 06:18:15;;;;;;;11.82;7.68;;;;;;;4.08;90.61;97628.34;5013687;28;20050;-45
2021/12/17 06:20:43;;;;;;;10.68;7.82;;;;;;;4.08;90.90;97630.22;5011543;28;20045;-49
2021/12/17 06:23:09;;;;;;;12.60;8.30;;;;;;;3.72;92.42;97629.75;5012782;28;20100;-49
2021/12/17 06:25:36;;;;;;;11.05;7.57;;;;;;;3.68;92.64;97633.97;5010577;28;20487;-48
2021/12/17 06:28:04;;;;;;;12.23;7.90;;;;;;;3.90;91.59;97634.84;5010875;28;20049;-50
2021/12/17 06:30:31;;;;;;;9.15;6.22;;;;;;;3.81;91.35;97630.97;5009521;28;20120;-46
2021/12/17 06:32:59;;;;;;;9.20;6.22;;;;;;;3.60;92.20;97619.13;5011231;28;20109;-45
2021/12/17 06:35:30;;;;;;;8.35;5.50;;;;;;;4.28;89.49;97616.28;5028058;28;20507;-48
2021/12/17 06:37:56;;;;;;;8.35;5.00;;;;;;;3.94;90.34;97617.22;5009993;28;20464;-48
2021/12/17 06:40:29;;;;;;;7.30;4.83;;;;;;;4.25;89.06;97624.81;5012205;28;20486;-45
2021/12/17 06:42:57;;;;;;;6.50;4.70;;;;;;;4.18;89.58;97630.34;5010775;28;20076;-44
2021/12/17 06:45:41;;;;;;;7.25;4.75;;;;;;;4.36;88.55;97640.75;5022590;28;20121;-48
2021/12/17 06:48:09;;;;;;;7.88;5.75;;;;;;;4.30;88.45;97635.59;5028694;28;20108;-45
2021/12/17 06:59:51;;;;;;;8.57;6.22;;;;;;;4.37;88.02;97610.22;5007569;28;19976;-45
2021/12/17 07:17:39;;;;;;;11.35;7.57;;;;;;;3.47;90.82;97609.59;5004678;28;20049;-46
2021/12/17 07:28:53;;;;;;;12.18;8.00;;;;;;;3.69;89.28;97603.47;5009847;28;20041;-44
2021/12/17 07:33:36;;;;;;;11.98;8.07;;;;;;;3.61;89.21;97598.56;5010039;28;20064;-47
2021/12/17 07:36:45;;;;;;;11.48;8.43;;;;;;;3.97;87.92;97605.19;5016600;28;20458;-46
2021/12/17 07:39:16;;;;;;;13.32;8.20;;;;;;;3.17;91.05;97614.47;5025306;28;20580;-44
2021/12/17 07:41:52;;;;;;;19.52;9.27;;;;;;;3.54;89.47;97625.47;5008734;28;20058;-43
2021/12/17 07:44:49;;;;;;;11.80;8.20;;;;;;;3.32;90.63;97638.00;5008586;28;20062;-43
2021/12/17 07:47:48;;;;;;;15.05;8.70;;;;;;;3.04;91.27;97632.47;5002494;28;20050;-44
2021/12/17 07:50:34;;;;;;;13.55;8.65;;;;;;;3.49;90.08;97634.25;4996680;28;20477;-44
2021/12/17 07:53:01;;;;;;;12.32;8.25;;;;;;;3.30;91.33;97637.41;5010364;28;20088;-48
2021/12/17 07:55:33;;;;;;;10.32;7.45;;;;;;;3.62;90.18;97634.97;5012289;28;20117;-46
2021/12/17 07:58:04;;;;;;;15.02;9.25;;;;;;;3.42;90.67;97633.59;5002244;28;20065;-45
2021/12/17 08:00:35;;;;;;;13.55;8.55;;;;;;;3.60;90.78;97632.50;5010999;28;20065;-45
2021/12/17 08:03:04;;;;;;;14.82;8.98;;;;;;;3.74;89.75;97639.16;5000956;28;20038;-45
2021/12/17 08:05:54;;;;;;;10.88;8.00;;;;;;;3.82;89.77;97637.91;5010157;28;20069;-45
2021/12/17 08:08:22;;;;;;;13.70;7.97;;;;;;;3.86;88.93;97639.03;5024939;28;20042;-45
2021/12/17 08:11:16;;;;;;;9.75;7.13;;;;;;;3.70;88.90;97637.22;5008524;28;20136;-45
2021/12/17 08:13:45;;;;;;;10.55;7.22;;;;;;;3.55;91.02;97639.69;5004984;28;20033;-45
2021/12/17 08:16:28;;;;;;;8.30;6.07;;;;;;;3.58;90.66;97642.69;4999661;28;20038;-45
2021/12/17 08:31:56;;;;;;;9.15;5.38;;;;;;;3.75;89.21;97623.91;5012918;28;20519;-51
2021/12/17 08:34:32;;;;;;;9.05;5.90;;;;;;;3.56;89.57;97617.22;5024945;28;20052;-45
2021/12/17 08:37:00;;;;;;;9.23;6.25;;;;;;;3.79;88.82;97625.03;5032701;28;20042;-48
2021/12/17 08:39:30;;;;;;;9.27;6.28;;;;;;;3.96;87.91;97633.84;5008958;28;20041;-45
2021/12/17 08:42:09;;;;;;;9.23;6.07;;;;;;;3.66;89.10;97630.72;5024669;28;20521;-46
2021/12/17 08:44:36;;;;;;;11.00;6.50;;;;;;;4.02;87.72;97604.44;5031888;28;20069;-46
2021/12/17 08:47:23;;;;;;;9.20;6.07;;;;;;;3.88;88.72;97622.75;5028959;28;20049;-45
2021/12/17 08:49:53;;;;;;;10.30;6.70;;;;;;;4.01;88.10;97629.59;5010775;28;20129;-47
2021/12/17 08:52:22;;;;;;;8.77;6.22;;;;;;;4.01;87.56;97630.41;5015102;28;20165;-49
2021/12/17 08:54:49;;;;;;;8.20;5.88;;;;;;;3.70;89.33;97635.34;5013074;28;20069;-48
2021/12/17 08:57:16;;;;;;;8.55;5.80;;;;;;;3.64;89.34;97628.31;5016596;28;20108;-46
2021/12/17 08:59:43;;;;;;;8.52;5.70;;;;;;;3.46;90.26;97631.25;5013588;28;20408;-47
2021/12/17 09:02:13;;;;;;;9.35;6.60;;;;;;;3.41;90.64;97629.31;5013277;28;20126;-48
2021/12/17 09:05:17;;;;;;;8.95;6.53;;;;;;;3.45;90.80;97626.97;5023145;28;20128;-44
2021/12/17 09:07:49;;;;;;;10.18;6.75;;;;;;;3.44;90.92;97628.81;5012076;28;20486;-46
2021/12/17 09:10:37;;;;;;;9.23;7.07;;;;;;;3.51;90.36;97634.81;5008892;28;20056;-48
2021/12/17 09:13:06;;;;;;;9.70;6.68;;;;;;;3.73;89.15;97626.81;5019957;28;20128;-47
2021/12/17 09:15:33;;;;;;;11.10;6.63;;;;;;;3.50;90.41;97629.69;5012142;28;20050;-47
2021/12/17 09:18:03;;;;;;;9.50;5.95;;;;;;;3.54;90.41;97624.66;5014397;28;20491;-48
2021/12/17 09:20:34;;;;;;;10.32;7.20;;;;;;;3.78;89.38;97618.06;5016376;28;20054;-52
2021/12/17 09:23:01;;;;;;;9.82;7.20;;;;;;;4.26;87.32;97615.69;5010373;28;20057;-50
2021/12/17 09:25:31;;;;;;;10.23;6.47;;;;;;;3.88;88.54;97620.88;5021426;28;20160;-48
2021/12/17 09:28:03;;;;;;;10.93;7.32;;;;;;;3.93;88.53;97628.97;5038073;28;20490;-45
2021/12/17 09:30:45;;;;;;;10.40;7.15;;;;;;;3.94;89.01;97614.53;5013891;28;20048;-49
2021/12/17 09:33:12;;;;;;;12.40;6.95;;;;;;;3.86;89.00;97620.28;5011803;28;20099;-45
2021/12/17 09:35:39;;;;;;;9.30;6.70;;;;;;;3.81;89.00;97617.56;5009085;28;20050;-48
2021/12/17 09:38:06;;;;;;;11.38;8.02;;;;;;;3.93;88.34;97615.59;5012441;28;20092;-43
2021/12/17 09:40:33;;;;;;;11.25;7.70;;;;;;;3.87;88.06;97623.81;5017945;28;20091;-45
2021/12/17 09:43:00;;;;;;;10.65;7.50;;;;;;;3.93;88.09;97615.59;5026890;28;20053;-45
2021/12/17 09:45:27;;;;;;;12.20;7.68;;;;;;;4.11;87.49;97616.34;5012811;28;20570;-46
2021/12/17 09:47:54;;;;;;;10.02;7.65;;;;;;;4.21;87.19;97614.59;5009291;28;20491;-44
2021/12/17 09:50:22;;;;;;;11.63;7.35;;;;;;;4.35;86.56;97606.97;5013737;28;20045;-46
2021/12/17 09:52:50;;;;;;;11.18;7.40;;;;;;;4.66;84.99;97607.31;5017550;28;20077;-45
2021/12/17 09:55:17;;;;;;;10.20;7.63;;;;;;;4.54;85.74;97601.28;5021427;28;20153;-46
2021/12/17 09:57:44;;;;;;;10.82;7.35;;;;;;;4.45;85.37;97615.16;5013181;28;20050;-45
2021/12/17 10:00:16;;;;;;;12.43;7.97;;;;;;;4.18;85.50;97615.09;5020972;28;20125;-44
2021/12/17 10:02:45;;;;;;;12.65;7.35;;;;;;;4.30;85.88;97614.97;5011290;28;20154;-45
2021/12/17 10:05:14;;;;;;;11.85;7.53;;;;;;;4.32;86.63;97612.84;5010269;28;20092;-44
2021/12/17 10:07:44;;;;;;;11.75;7.03;;;;;;;4.07;85.30;97604.50;5013938;28;20050;-46
2021/12/17 10:10:13;;;;;;;9.93;7.25;;;;;;;4.31;85.84;97602.38;5012443;28;20514;-47
2021/12/17 10:12:40;;;;;;;9.85;7.13;;;;;;;4.73;84.61;97583.78;5008399;28;20494;-45
2021/12/17 10:15:19;;;;;;;11.55;8.13;;;;;;;4.79;84.79;97584.66;5013566;28;20059;-44
2021/12/17 10:18:02;;;;;;;13.63;9.02;;;;;;;4.17;86.32;97583.19;5007536;28;20069;-43
2021/12/17 10:20:34;;;;;;;14.50;8.68;;;;;;;4.63;84.58;97581.81;5013468;28;20498;-45
2021/12/17 10:23:04;;;;;;;13.88;8.02;;;;;;;4.60;83.55;97578.81;5010906;28;20120;-47
2021/12/17 10:25:35;;;;;;;11.93;7.97;;;;;;;4.56;84.48;97577.72;5011110;28;20173;-44
2021/12/17 10:28:06;;;;;;;11.48;7.82;;;;;;;4.59;81.84;97569.97;5008618;28;20402;-43
2021/12/17 10:30:37;;;;;;;14.50;8.27;;;;;;;4.26;83.55;97575.50;5011251;28;20527;-45
2021/12/17 10:33:07;;;;;;;10.65;7.40;;;;;;;4.75;83.81;97573.63;5012696;28;20056;-42
2021/12/17 10:35:39;;;;;;;11.93;8.13;;;;;;;5.13;82.31;97575.28;5009921;28;20044;-43
2021/12/17 10:38:10;;;;;;;12.27;8.18;;;;;;;5.30;81.91;97580.50;5011503;28;20048;-43
2021/12/17 10:43:28;;;;;;;13.50;8.10;;;;;;;4.80;83.31;97581.69;5006664;28;20095;-44
2021/12/17 10:46:56;;;;;;;13.17;8.50;;;;;;;5.14;82.59;97576.91;5017015;28;20060;-44
2021/12/17 10:51:32;;;;;;;13.27;7.88;;;;;;;5.44;81.19;97586.22;5011720;28;20053;-43
2021/12/17 10:54:05;;;;;;;13.70;7.28;;;;;;;4.99;80.01;97589.38;5019292;28;20052;-45
2021/12/17 10:56:37;;;;;;;11.00;7.63;;;;;;;4.90;83.10;97591.69;5010204;28;20072;-43
2021/12/17 10:59:08;;;;;;;15.02;7.93;;;;;;;4.98;83.26;97588.56;5023445;28;20030;-45
2021/12/17 11:01:35;;;;;;;11.98;8.30;;;;;;;4.95;83.14;97594.44;5014127;28;20061;-43
2021/12/17 11:04:08;;;;;;;10.65;7.38;;;;;;;5.01;82.95;97598.78;5018446;28;20459;-43
2021/12/17 11:06:56;;;;;;;12.23;8.65;;;;;;;5.38;81.51;97598.81;5009086;28;20042;-42
2021/12/17 11:09:35;;;;;;;12.18;8.25;;;;;;;5.44;82.45;97590.78;5000788;28;20042;-44
2021/12/17 11:12:17;;;;;;;14.68;8.50;;;;;;;5.30;79.54;97577.81;5004331;28;20392;-43
2021/12/17 11:14:46;;;;;;;12.82;8.30;;;;;;;5.34;80.02;97586.97;5010958;28;20478;-43
2021/12/17 11:17:16;;;;;;;11.43;7.72;;;;;;;6.73;79.55;97581.16;5011055;28;20049;-43
2021/12/17 11:20:08;;;;;;;11.00;8.00;;;;;;;7.53;74.69;97585.97;5012258;28;20072;-43
2021/12/17 11:22:43;;;;;;;13.00;9.25;;;;;;;7.93;76.17;97581.59;5011832;28;20414;-45
2021/12/17 11:25:11;;;;;;;10.80;7.68;;;;;;;8.10;70.67;97590.16;5006732;28;20042;-45
2021/12/17 11:27:38;;;;;;;12.43;7.85;;;;;;;6.46;75.40;97575.97;5006342;28;20038;-43
2021/12/17 11:30:12;;;;;;;11.40;7.75;;;;;;;6.99;75.81;97570.41;5011440;28;20414;-44
2021/12/17 11:32:43;;;;;;;11.20;7.25;;;;;;;5.76;79.80;97562.00;5020837;28;20124;-44
2021/12/17 11:35:13;;;;;;;12.80;8.63;;;;;;;6.64;79.84;97555.03;5012594;28;20050;-46
2021/12/17 11:37:43;;;;;;;11.65;7.78;;;;;;;6.90;78.93;97545.13;5005360;28;20046;-43
2021/12/17 11:40:22;;;;;;;10.23;7.95;;;;;;;8.30;74.90;97551.50;5005017;28;20049;-43
2021/12/17 11:43:10;;;;;;;9.98;7.60;;;;;;;8.13;70.35;97554.56;5011248;28;20041;-42
2021/12/17 11:45:37;;;;;;;12.13;7.30;;;;;;;6.30;77.43;97553.63;5005511;28;20073;-44
2021/12/17 11:48:19;;;;;;;11.63;7.38;;;;;;;5.81;79.99;97556.63;5026176;28;20037;-42
2021/12/17 11:51:02;;;;;;;11.17;7.37;;;;;;;5.32;82.57;97567.63;5011868;28;20073;-44
2021/12/17 11:53:32;;;;;;;10.80;7.90;;;;;;;6.23;79.12;97560.31;5010169;28;20361;-44
2021/12/17 11:56:03;;;;;;;12.30;8.00;;;;;;;5.60;81.13;97562.97;5006779;28;20169;-44
2021/12/17 11:58:46;;;;;;;11.82;8.40;;;;;;;5.27;83.09;97564.91;5013335;28;20069;-43
2021/12/17 12:01:13;;;;;;;12.27;7.73;;;;;;;5.57;81.81;97558.13;5012924;28;20061;-46
2021/12/17 12:03:40;;;;;;;12.27;8.07;;;;;;;5.45;83.61;97568.25;5006721;28;20091;-45
2021/12/17 12:06:33;;;;;;;10.18;8.07;;;;;;;5.88;81.56;97552.91;5020623;28;20054;-48
2021/12/17 12:09:04;;;;;;;13.18;8.30;;;;;;;4.75;85.54;97549.50;5013746;28;20124;-46
2021/12/17 12:11:31;;;;;;;11.23;7.88;;;;;;;4.31;87.36;97538.88;5024529;28;21306;-47
2021/12/17 12:14:01;;;;;;;10.35;8.05;;;;;;;4.20;88.67;97540.66;5011076;28;20053;-47
2021/12/17 12:16:30;;;;;;;12.60;8.35;;;;;;;4.09;88.83;97538.91;5012674;28;20049;-47
2021/12/17 12:19:08;;;;;;;12.32;8.77;;;;;;;3.89;89.62;97549.38;5009984;28;20439;-49
2021/12/17 12:21:38;;;;;;;14.43;8.95;;;;;;;3.90;90.09;97551.00;5011194;28;20392;-50
2021/12/17 12:24:08;;;;;;;11.57;8.57;;;;;;;4.35;88.81;97548.00;5010359;28;20125;-47
2021/12/17 12:26:45;;;;;;;16.27;9.45;;;;;;;4.97;87.38;97548.56;5011451;28;20054;-48
2021/12/17 12:29:22;;;;;;;11.43;8.30;;;;;;;4.80;86.56;97552.19;5009477;28;20042;-45
2021/12/17 12:31:55;;;;;;;13.00;7.75;;;;;;;4.84;85.31;97555.16;5014957;28;20056;-49
2021/12/17 12:34:34;;;;;;;12.38;7.90;;;;;;;4.59;86.29;97561.13;5013753;28;20092;-48
2021/12/17 12:37:06;;;;;;;15.15;9.43;;;;;;;5.22;85.25;97556.81;5000814;28;20049;-45
2021/12/17 12:39:46;;;;;;;11.65;7.93;;;;;;;4.69;85.29;97561.22;5015835;28;20114;-47
2021/12/17 12:42:20;;;;;;;11.95;8.00;;;;;;;4.81;85.81;97559.19;5025699;28;20053;-47
2021/12/17 12:44:49;;;;;;;11.40;8.50;;;;;;;5.08;86.44;97566.38;5018305;28;20042;-46
2021/12/17 12:47:31;;;;;;;11.25;8.55;;;;;;;5.21;84.89;97570.50;5014012;28;20077;-50
2021/12/17 12:50:07;;;;;;;10.82;8.45;;;;;;;4.75;85.82;97562.91;5014168;28;20045;-46
2021/12/17 12:52:44;;;;;;;11.88;8.73;;;;;;;4.54;86.03;97572.59;5015390;28;20084;-46
2021/12/17 12:55:26;;;;;;;10.98;8.77;;;;;;;4.78;86.71;97566.94;5008724;28;20435;-51
2021/12/17 12:58:01;;;;;;;13.32;9.98;;;;;;;4.87;86.80;97571.56;5005137;28;20058;-46
2021/12/17 13:00:33;;;;;;;15.20;10.98;;;;;;;5.08;85.61;97577.91;5011042;28;20137;-45
2021/12/17 13:03:02;;;;;;;13.48;10.10;;;;;;;4.22;88.47;97568.00;5014072;28;20065;-46
2021/12/17 13:05:30;;;;;;;13.82;10.57;;;;;;;3.75;91.23;97565.00;5029028;28;20073;-48
2021/12/17 13:07:59;;;;;;;13.98;10.80;;;;;;;3.69;90.31;97555.28;5010392;28;20486;-48
2021/12/17 13:10:31;;;;;;;13.63;10.40;;;;;;;3.63;91.38;97550.94;5013878;28;20475;-45
2021/12/17 13:13:28;;;;;;;14.55;10.45;;;;;;;4.35;89.33;97558.72;5017501;28;20473;-47
2021/12/17 13:16:14;;;;;;;15.52;11.15;;;;;;;3.80;90.76;97572.28;5014737;28;20041;-47
2021/12/17 13:22:32;;;;;;;14.88;10.93;;;;;;;3.99;89.55;97555.66;5005552;28;20080;-47
2021/12/17 13:24:25;;;;;;;14.27;10.80;;;;;;;4.34;87.36;97564.34;5015120;28;20378;-50
2021/12/17 13:26:54;;;;;;;13.80;10.27;;;;;;;3.80;90.75;97562.38;5008781;28;20058;-50
2021/12/17 13:29:34;;;;;;;16.00;10.85;;;;;;;4.29;89.29;97570.47;5000655;28;20062;-48
2021/12/17 13:32:01;;;;;;;15.90;11.90;;;;;;;4.52;88.32;97569.38;4996733;28;20133;-47
2021/12/17 13:34:56;;;;;;;14.00;10.45;;;;;;;4.51;87.66;97562.38;5013114;28;20140;-52
2021/12/17 13:37:26;;;;;;;17.27;11.55;;;;;;;3.76;91.49;97563.94;5007302;28;20084;-47
2021/12/17 13:40:12;;;;;;;16.52;12.30;;;;;;;4.35;89.30;97566.78;5008458;28;20372;-51
2021/12/17 13:42:44;;;;;;;16.70;12.10;;;;;;;4.76;87.28;97569.06;5005963;28;20507;-48
2021/12/17 13:45:21;;;;;;;18.33;12.70;;;;;;;4.68;87.29;97563.09;4998025;28;20133;-51
2021/12/17 13:47:51;;;;;;;17.50;12.98;;;;;;;4.63;88.02;97581.00;5011086;28;20046;-46
2021/12/17 13:50:18;;;;;;;16.60;13.00;;;;;;;4.63;88.03;97589.03;5012939;28;20125;-47
2021/12/17 13:52:56;;;;;;;17.35;12.98;;;;;;;4.76;87.50;97577.91;5012214;28;20044;-47
2021/12/17 13:55:27;;;;;;;16.75;13.18;;;;;;;4.78;87.26;97583.84;5005729;28;20622;-48
2021/12/17 13:57:55;;;;;;;18.95;13.52;;;;;;;4.71;88.25;97587.78;5012720;28;20077;-50
2021/12/17 14:00:25;;;;;;;18.80;13.57;;;;;;;4.67;88.74;97587.47;4997165;28;20475;-48
2021/12/17 14:02:55;;;;;;;18.50;13.70;;;;;;;4.62;89.02;97580.19;5012411;28;20057;-49
2021/12/17 14:05:29;;;;;;;20.52;13.98;;;;;;;4.36;90.03;97594.41;5010020;28;20475;-48
2021/12/17 14:07:59;;;;;;;19.38;12.93;;;;;;;4.64;88.57;97596.03;5002144;28;20180;-47
2021/12/17 14:10:29;;;;;;;19.52;12.85;;;;;;;4.67;88.86;97595.50;5013822;28;20085;-50
2021/12/17 14:12:56;;;;;;;21.45;13.68;;;;;;;4.64;89.10;97594.16;5012412;28;20076;-46
2021/12/17 14:15:45;;;;;;;18.65;12.98;;;;;;;4.88;88.07;97594.66;5012282;28;20426;-48
2021/12/17 14:18:16;;;;;;;18.70;12.02;;;;;;;5.06;87.28;97600.69;5004870;28;20046;-49
2021/12/17 14:20:44;;;;;;;19.42;12.48;;;;;;;4.97;87.46;97597.66;5011596;28;20046;-48
2021/12/17 14:23:15;;;;;;;18.95;12.05;;;;;;;4.97;86.90;97599.53;5003749;28;20072;-45
2021/12/17 14:25:44;;;;;;;16.75;10.98;;;;;;;5.14;86.42;97592.19;5012177;28;20073;-47
2021/12/17 14:28:16;;;;;;;14.55;10.00;;;;;;;4.90;86.82;97597.88;4999274;28;20104;-47
2021/12/17 14:31:00;;;;;;;16.45;10.43;;;;;;;5.03;86.68;97590.47;4999304;28;20034;-48
2021/12/17 14:33:47;;;;;;;14.40;9.82;;;;;;;4.89;87.30;97596.25;5006871;28;20140;-48
2021/12/17 14:36:38;;;;;;;16.90;8.77;;;;;;;4.67;87.84;97592.84;5003911;28;20085;-48
2021/12/17 14:39:09;;;;;;;12.75;8.15;;;;;;;4.49;87.55;97590.53;5012122;28;20050;-50
2021/12/17 14:41:50;;;;;;;10.90;7.18;;;;;;;4.51;87.10;97588.38;5010724;28;20080;-48
2021/12/17 14:47:07;;;;;;;12.18;7.60;;;;;;;4.61;86.19;97593.84;4998121;28;20405;-46
2021/12/17 15:06:01;;;;;;;16.80;9.45;;;;;;;3.76;90.20;97580.00;4993120;28;20489;-47
2021/12/17 15:08:29;;;;;;;15.95;10.20;;;;;;;4.38;88.59;97586.91;5010603;28;20125;-47
2021/12/17 15:10:58;;;;;;;16.45;11.00;;;;;;;4.37;88.08;97566.53;5010843;28;20483;-52
2021/12/17 15:13:25;;;;;;;16.90;11.50;;;;;;;4.50;87.98;97568.00;5011868;28;20052;-47
2021/12/17 15:15:54;;;;;;;20.40;11.90;;;;;;;4.66;87.25;97578.63;5010438;28;20052;-52
2021/12/17 15:18:20;;;;;;;18.30;12.75;;;;;;;4.75;86.39;97570.94;4993252;28;20243;-49
2021/12/17 15:20:50;;;;;;;20.20;12.23;;;;;;;4.94;85.15;97582.09;5012152;28;20034;-47